sensor_id;sensor_type;location;lat;lon;timestamp;pressure;altitude;pressure_sealevel;temperature;humidity
14273;BME280;7220;49.450;11.052;2023-04-27T00:00:24;98333.59;;;8.12;55.23
14273;BME280;7220;49.450;11.052;2023-04-27T00:04:25;98332.25;;;8.01;55.21
14273;BME280;7220;49.450;11.052;2023-04-27T00:08:25;98332.13;;;8.04;55.76
14273;BME280;7220;49.450;11.052;2023-04-27T00:12:25;98323.28;;;8.05;55.77
14273;BME280;7220;49.450;11.052;2023-04-27T00:16:26;98319.03;;;8.01;55.98
14273;BME280;7220;49.450;11.052;2023-04-27T00:20:26;98315.41;;;8.04;56.36
14273;BME280;7220;49.450;11.052;2023-04-27T00:24:26;98311.84;;;8.05;55.99
14273;BME280;7220;49.450;11.052;2023-04-27T00:28:27;98304.88;;;8.02;56.15
14273;BME280;7220;49.450;11.052;2023-04-27T00:32:27;98311.31;;;8.17;55.95
14273;BME280;7220;49.450;11.052;2023-04-27T00:36:27;98292.47;;;8.25;56.32
14273;BME280;7220;49.450;11.052;2023-04-27T00:40:28;98309.00;;;8.30;56.56
14273;BME280;7220;49.450;11.052;2023-04-27T00:44:28;98304.75;;;8.26;57.08
14273;BME280;7220;49.450;11.052;2023-04-27T00:48:28;98302.31;;;8.21;57.54
14273;BME280;7220;49.450;11.052;2023-04-27T00:52:29;98296.41;;;8.35;57.32
14273;BME280;7220;49.450;11.052;2023-04-27T00:56:30;98296.31;;;8.39;57.31
14273;BME280;7220;49.450;11.052;2023-04-27T01:00:31;98296.22;;;8.40;57.04
14273;BME280;7220;49.450;11.052;2023-04-27T01:04:31;98294.84;;;8.31;57.74
14273;BME280;7220;49.450;11.052;2023-04-27T01:08:32;98293.78;;;8.35;57.32
14273;BME280;7220;49.450;11.052;2023-04-27T01:12:32;98285.56;;;8.42;56.77
14273;BME280;7220;49.450;11.052;2023-04-27T01:16:33;98289.03;;;8.23;56.55
14273;BME280;7220;49.450;11.052;2023-04-27T01:20:34;98292.72;;;8.19;57.08
14273;BME280;7220;49.450;11.052;2023-04-27T01:24:35;98287.41;;;8.19;56.00
14273;BME280;7220;49.450;11.052;2023-04-27T01:28:35;98294.16;;;8.26;56.22
14273;BME280;7220;49.450;11.052;2023-04-27T01:32:37;98299.47;;;8.26;56.34
14273;BME280;7220;49.450;11.052;2023-04-27T01:36:37;98291.53;;;8.26;55.65
14273;BME280;7220;49.450;11.052;2023-04-27T01:40:38;98302.91;;;8.28;55.00
14273;BME280;7220;49.450;11.052;2023-04-27T01:44:38;98302.91;;;8.28;54.86
14273;BME280;7220;49.450;11.052;2023-04-27T01:48:40;98296.25;;;8.19;54.71
14273;BME280;7220;49.450;11.052;2023-04-27T01:52:41;98298.16;;;8.16;54.65
14273;BME280;7220;49.450;11.052;2023-04-27T01:56:41;98301.53;;;8.19;54.93
14273;BME280;7220;49.450;11.052;2023-04-27T02:00:41;98303.44;;;8.16;54.65
14273;BME280;7220;49.450;11.052;2023-04-27T02:04:41;98303.56;;;8.13;54.39
14273;BME280;7220;49.450;11.052;2023-04-27T02:08:42;98310.84;;;8.08;54.20
14273;BME280;7220;49.450;11.052;2023-04-27T02:12:42;98299.38;;;8.07;54.74
14273;BME280;7220;49.450;11.052;2023-04-27T02:16:42;98302.22;;;8.02;54.47
14273;BME280;7220;49.450;11.052;2023-04-27T02:20:43;98307.69;;;7.98;55.17
14273;BME280;7220;49.450;11.052;2023-04-27T02:24:43;98307.22;;;7.88;54.73
14273;BME280;7220;49.450;11.052;2023-04-27T02:28:44;98305.84;;;7.79;54.94
14273;BME280;7220;49.450;11.052;2023-04-27T02:32:45;98309.47;;;7.77;55.15
14273;BME280;7220;49.450;11.052;2023-04-27T02:36:46;98310.06;;;7.61;55.53
14273;BME280;7220;49.450;11.052;2023-04-27T02:40:52;98319.16;;;7.54;55.70
14273;BME280;7220;49.450;11.052;2023-04-27T02:44:53;98318.25;;;7.55;56.36
14273;BME280;7220;49.450;11.052;2023-04-27T02:48:54;98310.38;;;7.53;56.14
14273;BME280;7220;49.450;11.052;2023-04-27T02:52:55;98320.22;;;7.50;55.68
14273;BME280;7220;49.450;11.052;2023-04-27T02:56:55;98308.50;;;7.33;56.37
14273;BME280;7220;49.450;11.052;2023-04-27T03:00:56;98319.66;;;7.41;56.37
14273;BME280;7220;49.450;11.052;2023-04-27T03:04:56;98318.59;;;7.46;55.54
14273;BME280;7220;49.450;11.052;2023-04-27T03:08:58;98326.09;;;7.34;57.05
14273;BME280;7220;49.450;11.052;2023-04-27T03:12:58;98314.53;;;7.37;56.72
14273;BME280;7220;49.450;11.052;2023-04-27T03:16:59;98319.59;;;7.19;57.22
14273;BME280;7220;49.450;11.052;2023-04-27T03:21:09;98325.81;;;7.18;57.80
14273;BME280;7220;49.450;11.052;2023-04-27T03:25:10;98329.38;;;7.17;58.11
14273;BME280;7220;49.450;11.052;2023-04-27T03:29:10;98325.13;;;7.13;57.99
14273;BME280;7220;49.450;11.052;2023-04-27T03:33:11;98336.56;;;7.14;58.26
14273;BME280;7220;49.450;11.052;2023-04-27T03:37:11;98330.69;;;7.05;58.74
14273;BME280;7220;49.450;11.052;2023-04-27T03:41:12;98333.56;;;6.99;59.20
14273;BME280;7220;49.450;11.052;2023-04-27T03:45:12;98341.97;;;6.87;60.46
14273;BME280;7220;49.450;11.052;2023-04-27T03:49:12;98343.13;;;6.78;61.58
14273;BME280;7220;49.450;11.052;2023-04-27T03:53:13;98355.66;;;6.73;61.21
14273;BME280;7220;49.450;11.052;2023-04-27T03:57:13;98359.22;;;6.72;62.02
14273;BME280;7220;49.450;11.052;2023-04-27T04:01:13;98354.91;;;6.69;63.12
14273;BME280;7220;49.450;11.052;2023-04-27T04:05:15;98356.84;;;6.64;63.88
14273;BME280;7220;49.450;11.052;2023-04-27T04:09:15;98368.34;;;6.63;63.55
14273;BME280;7220;49.450;11.052;2023-04-27T04:13:16;98367.97;;;6.49;64.44
14273;BME280;7220;49.450;11.052;2023-04-27T04:17:16;98359.53;;;6.62;64.24
14273;BME280;7220;49.450;11.052;2023-04-27T04:21:16;98352.31;;;6.68;64.25
14273;BME280;7220;49.450;11.052;2023-04-27T04:25:17;98347.78;;;6.71;65.02
14273;BME280;7220;49.450;11.052;2023-04-27T04:29:17;98344.84;;;6.81;64.70
14273;BME280;7220;49.450;11.052;2023-04-27T04:33:18;98338.41;;;6.88;64.44
14273;BME280;7220;49.450;11.052;2023-04-27T04:37:19;98354.03;;;6.94;64.87
14273;BME280;7220;49.450;11.052;2023-04-27T04:41:19;98360.72;;;6.79;64.85
14273;BME280;7220;49.450;11.052;2023-04-27T04:45:19;98357.47;;;6.96;65.04
14273;BME280;7220;49.450;11.052;2023-04-27T04:49:20;98356.19;;;6.83;66.55
14273;BME280;7220;49.450;11.052;2023-04-27T04:53:20;98357.91;;;6.84;66.84
14273;BME280;7220;49.450;11.052;2023-04-27T04:57:21;98356.19;;;6.83;66.90
14273;BME280;7220;49.450;11.052;2023-04-27T05:01:21;98346.78;;;6.99;65.95
14273;BME280;7220;49.450;11.052;2023-04-27T05:05:21;98355.25;;;7.09;65.84
14273;BME280;7220;49.450;11.052;2023-04-27T05:09:22;98350.13;;;7.04;66.14
14273;BME280;7220;49.450;11.052;2023-04-27T05:13:22;98344.72;;;7.07;65.78
14273;BME280;7220;49.450;11.052;2023-04-27T05:17:23;98351.72;;;7.08;66.01
14273;BME280;7220;49.450;11.052;2023-04-27T05:21:24;98371.50;;;7.22;65.53
14273;BME280;7220;49.450;11.052;2023-04-27T05:25:24;98365.28;;;7.23;65.12
14273;BME280;7220;49.450;11.052;2023-04-27T05:29:26;98372.44;;;7.21;64.63
14273;BME280;7220;49.450;11.052;2023-04-27T05:33:26;98372.06;;;7.30;64.44
14273;BME280;7220;49.450;11.052;2023-04-27T05:37:26;98378.16;;;7.32;64.33
14273;BME280;7220;49.450;11.052;2023-04-27T05:41:28;98376.19;;;7.37;63.33
14273;BME280;7220;49.450;11.052;2023-04-27T05:45:28;98379.19;;;7.52;62.30
14273;BME280;7220;49.450;11.052;2023-04-27T05:49:29;98374.03;;;7.49;62.81
14273;BME280;7220;49.450;11.052;2023-04-27T05:53:29;98388.47;;;7.62;62.18
14273;BME280;7220;49.450;11.052;2023-04-27T05:57:30;98390.47;;;7.57;62.27
14273;BME280;7220;49.450;11.052;2023-04-27T06:01:30;98391.47;;;7.77;62.18
14273;BME280;7220;49.450;11.052;2023-04-27T06:05:30;98399.59;;;7.94;60.67
14273;BME280;7220;49.450;11.052;2023-04-27T06:09:33;98394.47;;;7.89;60.70
14273;BME280;7220;49.450;11.052;2023-04-27T06:13:33;98403.72;;;8.01;60.25
14273;BME280;7220;49.450;11.052;2023-04-27T06:17:37;98402.44;;;8.12;59.79
14273;BME280;7220;49.450;11.052;2023-04-27T06:21:38;98393.09;;;8.25;58.97
14273;BME280;7220;49.450;11.052;2023-04-27T06:25:38;98393.00;;;8.27;58.34
14273;BME280;7220;49.450;11.052;2023-04-27T06:29:39;98399.84;;;8.32;57.57
14273;BME280;7220;49.450;11.052;2023-04-27T06:33:40;98388.84;;;8.42;56.04
14273;BME280;7220;49.450;11.052;2023-04-27T06:37:40;98395.50;;;8.52;56.06
14273;BME280;7220;49.450;11.052;2023-04-27T06:41:41;98404.28;;;8.75;55.51
14273;BME280;7220;49.450;11.052;2023-04-27T06:45:41;98413.28;;;8.91;55.06
14273;BME280;7220;49.450;11.052;2023-04-27T06:49:41;98403.59;;;9.11;54.20
14273;BME280;7220;49.450;11.052;2023-04-27T06:53:42;98393.31;;;9.24;54.12
14273;BME280;7220;49.450;11.052;2023-04-27T06:57:42;98394.38;;;9.39;53.06
14273;BME280;7220;49.450;11.052;2023-04-27T07:01:42;98398.84;;;9.57;51.85
14273;BME280;7220;49.450;11.052;2023-04-27T07:05:43;98401.59;;;9.75;51.69
14273;BME280;7220;49.450;11.052;2023-04-27T07:09:43;98389.25;;;9.74;51.55
14273;BME280;7220;49.450;11.052;2023-04-27T07:13:45;98381.25;;;9.93;51.26
14273;BME280;7220;49.450;11.052;2023-04-27T07:17:46;98384.34;;;10.20;50.48
14273;BME280;7220;49.450;11.052;2023-04-27T07:21:46;98392.44;;;10.36;49.93
14273;BME280;7220;49.450;11.052;2023-04-27T07:25:47;98391.63;;;10.53;49.46
14273;BME280;7220;49.450;11.052;2023-04-27T07:29:48;98390.97;;;10.66;49.22
14273;BME280;7220;49.450;11.052;2023-04-27T07:33:48;98396.72;;;10.76;48.47
14273;BME280;7220;49.450;11.052;2023-04-27T07:37:49;98398.50;;;10.93;47.70
14273;BME280;7220;49.450;11.052;2023-04-27T07:41:51;98402.41;;;10.85;47.99
14273;BME280;7220;49.450;11.052;2023-04-27T07:45:51;98413.75;;;10.89;47.62
14273;BME280;7220;49.450;11.052;2023-04-27T07:49:53;98413.97;;;11.02;46.94
14273;BME280;7220;49.450;11.052;2023-04-27T07:53:54;98418.13;;;11.08;47.19
14273;BME280;7220;49.450;11.052;2023-04-27T07:57:55;98409.09;;;11.10;45.89
14273;BME280;7220;49.450;11.052;2023-04-27T08:01:56;98413.25;;;11.16;46.17
14273;BME280;7220;49.450;11.052;2023-04-27T08:05:56;98412.69;;;11.27;45.59
14273;BME280;7220;49.450;11.052;2023-04-27T08:09:56;98426.19;;;11.40;46.75
14273;BME280;7220;49.450;11.052;2023-04-27T08:13:57;98417.97;;;11.44;45.00
14273;BME280;7220;49.450;11.052;2023-04-27T08:17:57;98422.06;;;11.50;44.84
14273;BME280;7220;49.450;11.052;2023-04-27T08:21:57;98417.47;;;11.54;45.01
14273;BME280;7220;49.450;11.052;2023-04-27T08:25:58;98416.88;;;11.64;44.46
14273;BME280;7220;49.450;11.052;2023-04-27T08:29:58;98415.66;;;11.70;44.95
14273;BME280;7220;49.450;11.052;2023-04-27T08:34:00;98414.13;;;11.82;43.20
14273;BME280;7220;49.450;11.052;2023-04-27T08:38:00;98413.78;;;11.72;43.88
14273;BME280;7220;49.450;11.052;2023-04-27T08:42:00;98414.91;;;11.68;44.32
14273;BME280;7220;49.450;11.052;2023-04-27T08:46:02;98397.97;;;11.53;44.53
14273;BME280;7220;49.450;11.052;2023-04-27T08:50:02;98413.78;;;11.56;44.79
14273;BME280;7220;49.450;11.052;2023-04-27T08:54:03;98407.28;;;11.78;43.33
14273;BME280;7220;49.450;11.052;2023-04-27T08:58:03;98405.09;;;11.68;43.77
14273;BME280;7220;49.450;11.052;2023-04-27T09:02:03;98392.50;;;11.72;41.99
14273;BME280;7220;49.450;11.052;2023-04-27T09:06:05;98405.25;;;11.99;41.94
14273;BME280;7220;49.450;11.052;2023-04-27T09:10:06;98398.28;;;12.12;41.83
14273;BME280;7220;49.450;11.052;2023-04-27T09:14:19;98390.28;;;12.12;41.67
14273;BME280;7220;49.450;11.052;2023-04-27T09:18:21;98394.72;;;12.28;41.92
14273;BME280;7220;49.450;11.052;2023-04-27T09:22:22;98393.00;;;12.43;41.72
14273;BME280;7220;49.450;11.052;2023-04-27T09:26:25;98380.47;;;12.59;41.26
14273;BME280;7220;49.450;11.052;2023-04-27T09:30:26;98374.88;;;12.64;41.01
14273;BME280;7220;49.450;11.052;2023-04-27T09:34:37;98375.09;;;12.75;40.53
14273;BME280;7220;49.450;11.052;2023-04-27T09:38:37;98354.94;;;13.00;39.40
14273;BME280;7220;49.450;11.052;2023-04-27T09:42:38;98353.53;;;13.09;38.91
14273;BME280;7220;49.450;11.052;2023-04-27T09:46:40;98354.66;;;13.19;38.41
14273;BME280;7220;49.450;11.052;2023-04-27T09:50:44;98358.00;;;13.37;38.51
14273;BME280;7220;49.450;11.052;2023-04-27T09:54:45;98355.53;;;13.49;37.63
14273;BME280;7220;49.450;11.052;2023-04-27T09:58:57;98347.72;;;13.60;37.63
14273;BME280;7220;49.450;11.052;2023-04-27T10:07:40;98338.38;;;14.22;36.80
14273;BME280;7220;49.450;11.052;2023-04-27T10:11:41;98356.16;;;14.36;36.75
14273;BME280;7220;49.450;11.052;2023-04-27T10:15:47;98348.69;;;14.41;36.64
14273;BME280;7220;49.450;11.052;2023-04-27T10:20:07;98348.09;;;14.63;35.77
14273;BME280;7220;49.450;11.052;2023-04-27T10:24:10;98344.19;;;14.82;36.13
14273;BME280;7220;49.450;11.052;2023-04-27T10:28:15;98340.03;;;15.04;36.02
14273;BME280;7220;49.450;11.052;2023-04-27T10:32:23;98341.09;;;15.14;35.04
14273;BME280;7220;49.450;11.052;2023-04-27T10:36:33;98340.09;;;15.28;35.46
14273;BME280;7220;49.450;11.052;2023-04-27T10:40:35;98327.78;;;15.38;34.96
14273;BME280;7220;49.450;11.052;2023-04-27T10:44:37;98327.03;;;15.36;34.64
14273;BME280;7220;49.450;11.052;2023-04-27T10:48:39;98336.78;;;15.37;34.23
14273;BME280;7220;49.450;11.052;2023-04-27T10:52:43;98326.69;;;15.54;34.92
14273;BME280;7220;49.450;11.052;2023-04-27T10:56:45;98328.53;;;15.90;34.65
14273;BME280;7220;49.450;11.052;2023-04-27T11:00:45;98321.13;;;16.18;33.40
14273;BME280;7220;49.450;11.052;2023-04-27T11:04:46;98310.72;;;16.38;33.14
14273;BME280;7220;49.450;11.052;2023-04-27T11:08:46;98320.06;;;16.68;33.12
14273;BME280;7220;49.450;11.052;2023-04-27T11:12:46;98312.06;;;16.91;32.90
14273;BME280;7220;49.450;11.052;2023-04-27T11:16:47;98310.47;;;17.90;32.45
14273;BME280;7220;49.450;11.052;2023-04-27T11:20:50;98305.47;;;21.04;28.02
14273;BME280;7220;49.450;11.052;2023-04-27T11:24:52;98307.84;;;21.54;27.23
14273;BME280;7220;49.450;11.052;2023-04-27T11:29:00;98299.47;;;23.02;25.55
14273;BME280;7220;49.450;11.052;2023-04-27T11:33:07;98300.34;;;23.29;25.81
14273;BME280;7220;49.450;11.052;2023-04-27T11:37:07;98296.25;;;24.10;25.07
14273;BME280;7220;49.450;11.052;2023-04-27T11:41:08;98310.41;;;23.79;25.77
14273;BME280;7220;49.450;11.052;2023-04-27T11:45:10;98315.88;;;21.36;27.34
14273;BME280;7220;49.450;11.052;2023-04-27T11:49:11;98308.28;;;23.04;25.77
14273;BME280;7220;49.450;11.052;2023-04-27T11:53:11;98297.69;;;22.93;26.11
14273;BME280;7220;49.450;11.052;2023-04-27T11:57:11;98302.09;;;22.13;27.16
14273;BME280;7220;49.450;11.052;2023-04-27T12:01:12;98316.53;;;21.48;27.10
14273;BME280;7220;49.450;11.052;2023-04-27T12:05:12;98313.22;;;21.64;27.36
14273;BME280;7220;49.450;11.052;2023-04-27T12:09:14;98313.47;;;21.71;27.22
14273;BME280;7220;49.450;11.052;2023-04-27T12:13:15;98302.16;;;21.57;27.76
14273;BME280;7220;49.450;11.052;2023-04-27T12:17:15;98292.00;;;21.87;27.74
14273;BME280;7220;49.450;11.052;2023-04-27T12:21:16;98285.00;;;22.13;27.40
14273;BME280;7220;49.450;11.052;2023-04-27T12:25:16;98289.00;;;22.09;27.55
14273;BME280;7220;49.450;11.052;2023-04-27T12:29:18;98292.44;;;21.65;27.60
14273;BME280;7220;49.450;11.052;2023-04-27T12:33:19;98290.00;;;21.34;28.40
14273;BME280;7220;49.450;11.052;2023-04-27T12:37:19;98293.91;;;21.49;28.73
14273;BME280;7220;49.450;11.052;2023-04-27T12:41:21;98292.19;;;21.58;27.84
14273;BME280;7220;49.450;11.052;2023-04-27T12:45:22;98290.19;;;21.50;27.76
14273;BME280;7220;49.450;11.052;2023-04-27T12:49:22;98290.06;;;21.80;28.09
14273;BME280;7220;49.450;11.052;2023-04-27T12:53:22;98288.56;;;22.13;27.65
14273;BME280;7220;49.450;11.052;2023-04-27T12:57:23;98278.03;;;22.28;27.12
14273;BME280;7220;49.450;11.052;2023-04-27T13:01:24;98281.59;;;22.65;27.27
14273;BME280;7220;49.450;11.052;2023-04-27T13:05:26;98278.41;;;22.43;26.90
14273;BME280;7220;49.450;11.052;2023-04-27T13:09:27;98278.63;;;21.86;27.42
14273;BME280;7220;49.450;11.052;2023-04-27T13:13:28;98275.09;;;21.57;28.19
14273;BME280;7220;49.450;11.052;2023-04-27T13:17:28;98276.97;;;22.03;27.45
14273;BME280;7220;49.450;11.052;2023-04-27T13:21:28;98262.75;;;22.01;27.47
14273;BME280;7220;49.450;11.052;2023-04-27T13:25:29;98264.59;;;22.55;27.05
14273;BME280;7220;49.450;11.052;2023-04-27T13:29:29;98266.84;;;22.41;27.30
14273;BME280;7220;49.450;11.052;2023-04-27T13:33:31;98258.31;;;22.00;27.31
14273;BME280;7220;49.450;11.052;2023-04-27T13:37:31;98250.34;;;21.52;27.26
14273;BME280;7220;49.450;11.052;2023-04-27T13:41:32;98250.28;;;21.06;27.49
14273;BME280;7220;49.450;11.052;2023-04-27T13:45:33;98234.56;;;21.20;27.69
14273;BME280;7220;49.450;11.052;2023-04-27T13:49:34;98234.00;;;20.88;28.21
14273;BME280;7220;49.450;11.052;2023-04-27T13:53:35;98246.13;;;20.55;28.45
14273;BME280;7220;49.450;11.052;2023-04-27T13:57:35;98246.00;;;20.37;28.75
14273;BME280;7220;49.450;11.052;2023-04-27T14:01:36;98249.28;;;20.30;29.26
14273;BME280;7220;49.450;11.052;2023-04-27T14:05:37;98233.53;;;20.16;28.96
14273;BME280;7220;49.450;11.052;2023-04-27T14:09:37;98231.38;;;19.90;29.37
14273;BME280;7220;49.450;11.052;2023-04-27T14:13:37;98230.25;;;19.93;29.34
14273;BME280;7220;49.450;11.052;2023-04-27T14:17:38;98225.38;;;19.67;29.94
14273;BME280;7220;49.450;11.052;2023-04-27T14:21:38;98231.47;;;19.59;30.17
14273;BME280;7220;49.450;11.052;2023-04-27T14:25:38;98232.13;;;19.42;30.04
14273;BME280;7220;49.450;11.052;2023-04-27T14:29:39;98226.19;;;19.48;30.43
14273;BME280;7220;49.450;11.052;2023-04-27T14:33:39;98226.81;;;19.71;30.35
14273;BME280;7220;49.450;11.052;2023-04-27T14:37:40;98223.66;;;19.56;30.66
14273;BME280;7220;49.450;11.052;2023-04-27T14:41:40;98227.63;;;19.42;30.75
14273;BME280;7220;49.450;11.052;2023-04-27T14:45:40;98226.97;;;19.19;30.54
14273;BME280;7220;49.450;11.052;2023-04-27T14:49:41;98231.09;;;18.92;30.88
14273;BME280;7220;49.450;11.052;2023-04-27T14:53:41;98241.78;;;19.03;30.86
14273;BME280;7220;49.450;11.052;2023-04-27T14:57:42;98235.13;;;19.07;30.91
14273;BME280;7220;49.450;11.052;2023-04-27T15:01:42;98231.16;;;19.43;30.70
14273;BME280;7220;49.450;11.052;2023-04-27T15:05:42;98236.78;;;19.39;30.45
14273;BME280;7220;49.450;11.052;2023-04-27T15:09:43;98231.28;;;19.41;30.46
14273;BME280;7220;49.450;11.052;2023-04-27T15:13:43;98225.19;;;19.39;30.28
14273;BME280;7220;49.450;11.052;2023-04-27T15:17:43;98219.22;;;19.35;30.78
14273;BME280;7220;49.450;11.052;2023-04-27T15:21:44;98225.56;;;19.25;30.79
14273;BME280;7220;49.450;11.052;2023-04-27T15:25:46;98215.38;;;19.28;31.24
14273;BME280;7220;49.450;11.052;2023-04-27T15:29:46;98213.09;;;19.33;30.95
14273;BME280;7220;49.450;11.052;2023-04-27T15:33:47;98219.06;;;19.37;31.18
14273;BME280;7220;49.450;11.052;2023-04-27T15:37:48;98218.38;;;19.45;31.14
14273;BME280;7220;49.450;11.052;2023-04-27T15:41:48;98202.31;;;19.33;30.66
14273;BME280;7220;49.450;11.052;2023-04-27T15:45:48;98206.22;;;19.10;31.18
14273;BME280;7220;49.450;11.052;2023-04-27T15:49:49;98205.78;;;19.04;31.31
14273;BME280;7220;49.450;11.052;2023-04-27T15:53:49;98208.66;;;19.13;31.28
14273;BME280;7220;49.450;11.052;2023-04-27T15:57:49;98202.28;;;19.14;31.27
14273;BME280;7220;49.450;11.052;2023-04-27T16:01:50;98196.94;;;19.33;30.88
14273;BME280;7220;49.450;11.052;2023-04-27T16:05:50;98191.91;;;19.79;30.72
14273;BME280;7220;49.450;11.052;2023-04-27T16:09:51;98189.09;;;20.10;30.34
14273;BME280;7220;49.450;11.052;2023-04-27T16:13:51;98190.78;;;20.21;30.09
14273;BME280;7220;49.450;11.052;2023-04-27T16:17:52;98182.53;;;20.32;29.96
14273;BME280;7220;49.450;11.052;2023-04-27T16:21:52;98177.28;;;20.31;30.18
14273;BME280;7220;49.450;11.052;2023-04-27T16:25:53;98184.06;;;20.55;29.60
14273;BME280;7220;49.450;11.052;2023-04-27T16:29:54;98168.81;;;20.63;29.17
14273;BME280;7220;49.450;11.052;2023-04-27T16:33:54;98165.94;;;20.65;29.37
14273;BME280;7220;49.450;11.052;2023-04-27T16:37:55;98173.38;;;20.53;29.36
14273;BME280;7220;49.450;11.052;2023-04-27T16:41:55;98175.16;;;20.15;29.61
14273;BME280;7220;49.450;11.052;2023-04-27T16:45:56;98176.84;;;19.67;30.11
14273;BME280;7220;49.450;11.052;2023-04-27T16:49:56;98185.25;;;19.13;30.98
14273;BME280;7220;49.450;11.052;2023-04-27T16:53:57;98175.06;;;18.86;31.43
14273;BME280;7220;49.450;11.052;2023-04-27T16:57:57;98176.56;;;18.69;31.77
14273;BME280;7220;49.450;11.052;2023-04-27T17:01:58;98176.59;;;18.79;31.70
14273;BME280;7220;49.450;11.052;2023-04-27T17:05:58;98179.72;;;18.84;31.62
14273;BME280;7220;49.450;11.052;2023-04-27T17:09:58;98176.59;;;18.79;31.96
14273;BME280;7220;49.450;11.052;2023-04-27T17:13:59;98168.09;;;18.73;31.79
14273;BME280;7220;49.450;11.052;2023-04-27T17:18:01;98165.22;;;18.65;31.69
14273;BME280;7220;49.450;11.052;2023-04-27T17:22:03;98177.03;;;18.53;32.10
14273;BME280;7220;49.450;11.052;2023-04-27T17:26:04;98174.56;;;18.40;32.66
14273;BME280;7220;49.450;11.052;2023-04-27T17:30:07;98169.31;;;18.38;32.33
14273;BME280;7220;49.450;11.052;2023-04-27T17:34:09;98165.47;;;18.31;32.52
14273;BME280;7220;49.450;11.052;2023-04-27T17:38:10;98164.72;;;18.29;32.51
14273;BME280;7220;49.450;11.052;2023-04-27T17:42:10;98165.25;;;18.23;32.92
14273;BME280;7220;49.450;11.052;2023-04-27T17:46:11;98166.00;;;18.04;32.87
14273;BME280;7220;49.450;11.052;2023-04-27T17:50:11;98158.47;;;17.86;33.06
14273;BME280;7220;49.450;11.052;2023-04-27T17:54:13;98169.44;;;17.62;33.39
14273;BME280;7220;49.450;11.052;2023-04-27T17:58:14;98165.47;;;17.45;33.85
14273;BME280;7220;49.450;11.052;2023-04-27T18:02:16;98156.97;;;17.28;33.66
14273;BME280;7220;49.450;11.052;2023-04-27T18:06:16;98157.84;;;17.17;34.45
14273;BME280;7220;49.450;11.052;2023-04-27T18:10:18;98160.56;;;17.06;34.53
14273;BME280;7220;49.450;11.052;2023-04-27T18:14:18;98165.19;;;16.93;34.83
14273;BME280;7220;49.450;11.052;2023-04-27T18:18:19;98172.63;;;16.78;35.64
14273;BME280;7220;49.450;11.052;2023-04-27T18:22:20;98168.25;;;16.54;35.92
14273;BME280;7220;49.450;11.052;2023-04-27T18:26:21;98168.59;;;16.49;35.48
14273;BME280;7220;49.450;11.052;2023-04-27T18:30:21;98173.91;;;16.27;35.96
14273;BME280;7220;49.450;11.052;2023-04-27T18:34:22;98172.19;;;16.14;36.45
14273;BME280;7220;49.450;11.052;2023-04-27T18:38:22;98174.22;;;15.99;37.43
14273;BME280;7220;49.450;11.052;2023-04-27T18:42:23;98190.88;;;15.91;37.63
14273;BME280;7220;49.450;11.052;2023-04-27T18:46:23;98192.34;;;15.84;37.38
14273;BME280;7220;49.450;11.052;2023-04-27T18:50:23;98201.25;;;15.72;37.83
14273;BME280;7220;49.450;11.052;2023-04-27T18:54:24;98198.53;;;15.60;37.56
14273;BME280;7220;49.450;11.052;2023-04-27T18:58:24;98197.50;;;15.50;37.96
14273;BME280;7220;49.450;11.052;2023-04-27T19:02:24;98202.91;;;15.37;38.45
14273;BME280;7220;49.450;11.052;2023-04-27T19:06:25;98190.31;;;15.26;38.63
14273;BME280;7220;49.450;11.052;2023-04-27T19:10:26;98190.97;;;15.17;37.85
14273;BME280;7220;49.450;11.052;2023-04-27T19:14:27;98196.97;;;15.08;38.29
14273;BME280;7220;49.450;11.052;2023-04-27T19:18:27;98190.59;;;14.97;38.79
14273;BME280;7220;49.450;11.052;2023-04-27T19:22:28;98190.19;;;14.91;38.53
14273;BME280;7220;49.450;11.052;2023-04-27T19:26:33;98187.19;;;14.82;39.38
14273;BME280;7220;49.450;11.052;2023-04-27T19:30:33;98194.91;;;14.74;38.97
14273;BME280;7220;49.450;11.052;2023-04-27T19:34:33;98188.28;;;14.67;38.89
14273;BME280;7220;49.450;11.052;2023-04-27T19:38:34;98184.53;;;14.44;39.28
14273;BME280;7220;49.450;11.052;2023-04-27T19:42:35;98192.22;;;14.35;39.80
14273;BME280;7220;49.450;11.052;2023-04-27T19:46:35;98181.50;;;14.23;39.68
14273;BME280;7220;49.450;11.052;2023-04-27T19:50:39;98190.19;;;14.26;39.97
14273;BME280;7220;49.450;11.052;2023-04-27T19:54:40;98196.81;;;14.20;39.92
14273;BME280;7220;49.450;11.052;2023-04-27T19:58:40;98196.81;;;14.20;39.90
14273;BME280;7220;49.450;11.052;2023-04-27T20:02:40;98195.44;;;14.28;39.67
14273;BME280;7220;49.450;11.052;2023-04-27T20:06:41;98187.72;;;14.23;40.39
14273;BME280;7220;49.450;11.052;2023-04-27T20:10:42;98184.19;;;14.23;40.33
14273;BME280;7220;49.450;11.052;2023-04-27T20:14:42;98201.28;;;14.20;40.54
14273;BME280;7220;49.450;11.052;2023-04-27T20:18:44;98189.13;;;14.16;40.42
14273;BME280;7220;49.450;11.052;2023-04-27T20:22:44;98189.53;;;14.10;40.82
14273;BME280;7220;49.450;11.052;2023-04-27T20:26:45;98180.13;;;14.04;41.07
14273;BME280;7220;49.450;11.052;2023-04-27T20:30:45;98184.59;;;14.03;41.53
14273;BME280;7220;49.450;11.052;2023-04-27T20:34:46;98185.03;;;13.97;41.56
14273;BME280;7220;49.450;11.052;2023-04-27T20:38:46;98188.66;;;13.96;41.45
14273;BME280;7220;49.450;11.052;2023-04-27T20:42:46;98178.56;;;13.87;41.90
14273;BME280;7220;49.450;11.052;2023-04-27T20:46:48;98178.47;;;13.76;42.61
14273;BME280;7220;49.450;11.052;2023-04-27T20:50:48;98186.25;;;13.79;42.30
14273;BME280;7220;49.450;11.052;2023-04-27T20:54:50;98179.22;;;13.78;42.78
14273;BME280;7220;49.450;11.052;2023-04-27T20:58:51;98177.91;;;13.70;42.95
14273;BME280;7220;49.450;11.052;2023-04-27T21:02:51;98183.00;;;13.61;43.12
14273;BME280;7220;49.450;11.052;2023-04-27T21:06:51;98176.66;;;13.49;43.58
14273;BME280;7220;49.450;11.052;2023-04-27T21:10:52;98180.50;;;13.30;43.78
14273;BME280;7220;49.450;11.052;2023-04-27T21:14:52;98170.03;;;13.27;44.19
14273;BME280;7220;49.450;11.052;2023-04-27T21:18:53;98179.94;;;13.25;44.21
14273;BME280;7220;49.450;11.052;2023-04-27T21:22:53;98184.75;;;13.20;44.46
14273;BME280;7220;49.450;11.052;2023-04-27T21:26:53;98170.81;;;13.15;45.05